sensor_id;sensor_type;location;lat;lon;timestamp;pressure;altitude;pressure_sealevel;temperature;humidity
49393;BME280;35268;42.642;23.308;2023-04-25T00:01:54;93203.59;;;10.41;80.95
49393;BME280;35268;42.642;23.308;2023-04-25T00:04:21;93190.84;;;10.47;79.17
49393;BME280;35268;42.642;23.308;2023-04-25T00:06:47;93184.66;;;10.55;79.85
49393;BME280;35268;42.642;23.308;2023-04-25T00:09:13;93178.00;;;10.61;77.55
49393;BME280;35268;42.642;23.308;2023-04-25T00:11:40;93170.28;;;10.69;76.98
49393;BME280;35268;42.642;23.308;2023-04-25T00:14:05;93165.84;;;10.73;76.77
49393;BME280;35268;42.642;23.308;2023-04-25T00:16:31;93160.59;;;10.76;76.39
49393;BME280;35268;42.642;23.308;2023-04-25T00:18:59;93150.19;;;10.83;76.61
49393;BME280;35268;42.642;23.308;2023-04-25T00:21:25;93142.09;;;10.92;77.05
49393;BME280;35268;42.642;23.308;2023-04-25T00:23:52;93138.97;;;11.02;77.46
49393;BME280;35268;42.642;23.308;2023-04-25T00:26:18;93135.31;;;11.07;76.83
49393;BME280;35268;42.642;23.308;2023-04-25T00:28:43;93133.19;;;11.13;77.05
49393;BME280;35268;42.642;23.308;2023-04-25T00:31:09;93128.75;;;11.17;77.39
49393;BME280;35268;42.642;23.308;2023-04-25T00:33:35;93115.22;;;11.22;78.23
49393;BME280;35268;42.642;23.308;2023-04-25T00:36:00;93116.66;;;11.19;78.99
49393;BME280;35268;42.642;23.308;2023-04-25T00:38:26;93126.22;;;11.08;78.66
49393;BME280;35268;42.642;23.308;2023-04-25T00:40:51;93125.88;;;10.97;79.43
49393;BME280;35268;42.642;23.308;2023-04-25T00:43:18;93132.09;;;10.89;80.40
49393;BME280;35268;42.642;23.308;2023-04-25T00:45:43;93130.31;;;10.81;81.14
49393;BME280;35268;42.642;23.308;2023-04-25T00:48:13;93122.19;;;10.77;81.56
49393;BME280;35268;42.642;23.308;2023-04-25T00:50:39;93124.97;;;10.81;82.27
49393;BME280;35268;42.642;23.308;2023-04-25T00:53:06;93135.41;;;10.74;83.27
49393;BME280;35268;42.642;23.308;2023-04-25T00:55:32;93142.19;;;10.71;83.88
49393;BME280;35268;42.642;23.308;2023-04-25T00:57:59;93128.28;;;10.66;84.78
49393;BME280;35268;42.642;23.308;2023-04-25T01:00:25;93143.69;;;10.60;85.52
49393;BME280;35268;42.642;23.308;2023-04-25T01:02:51;93147.91;;;10.49;85.33
49393;BME280;35268;42.642;23.308;2023-04-25T01:05:17;93130.22;;;10.44;85.30
49393;BME280;35268;42.642;23.308;2023-04-25T01:07:44;93130.91;;;10.41;85.86
49393;BME280;35268;42.642;23.308;2023-04-25T01:10:10;93123.34;;;10.43;86.52
49393;BME280;35268;42.642;23.308;2023-04-25T01:12:36;93108.69;;;10.37;85.34
49393;BME280;35268;42.642;23.308;2023-04-25T01:15:01;93111.34;;;10.37;85.63
49393;BME280;35268;42.642;23.308;2023-04-25T01:17:27;93108.00;;;10.40;85.67
49393;BME280;35268;42.642;23.308;2023-04-25T01:19:53;93103.94;;;10.42;85.54
49393;BME280;35268;42.642;23.308;2023-04-25T01:22:18;93080.91;;;10.38;86.77
49393;BME280;35268;42.642;23.308;2023-04-25T01:24:44;93092.03;;;10.40;87.26
49393;BME280;35268;42.642;23.308;2023-04-25T01:27:10;93098.09;;;10.28;87.30
49393;BME280;35268;42.642;23.308;2023-04-25T01:29:36;93110.50;;;10.24;87.43
49393;BME280;35268;42.642;23.308;2023-04-25T01:32:02;93116.47;;;10.21;87.30
49393;BME280;35268;42.642;23.308;2023-04-25T01:34:28;93104.56;;;10.06;88.42
49393;BME280;35268;42.642;23.308;2023-04-25T01:36:54;93118.13;;;10.13;88.93
49393;BME280;35268;42.642;23.308;2023-04-25T01:39:20;93112.78;;;10.13;88.36
49393;BME280;35268;42.642;23.308;2023-04-25T01:41:46;93119.88;;;10.09;88.45
49393;BME280;35268;42.642;23.308;2023-04-25T01:44:13;93115.44;;;10.13;88.41
49393;BME280;35268;42.642;23.308;2023-04-25T01:46:38;93117.16;;;10.18;88.24
49393;BME280;35268;42.642;23.308;2023-04-25T01:49:04;93121.03;;;10.20;88.44
49393;BME280;35268;42.642;23.308;2023-04-25T01:51:30;93126.16;;;10.25;88.05
49393;BME280;35268;42.642;23.308;2023-04-25T01:53:57;93124.16;;;10.22;88.07
49393;BME280;35268;42.642;23.308;2023-04-25T01:56:22;93126.03;;;10.22;88.47
49393;BME280;35268;42.642;23.308;2023-04-25T01:58:48;93129.94;;;10.24;88.83
49393;BME280;35268;42.642;23.308;2023-04-25T02:01:13;93122.84;;;10.29;88.54
49393;BME280;35268;42.642;23.308;2023-04-25T02:03:39;93121.56;;;10.35;88.42
49393;BME280;35268;42.642;23.308;2023-04-25T02:06:05;93108.81;;;10.40;88.71
49393;BME280;35268;42.642;23.308;2023-04-25T02:08:30;93113.91;;;10.46;88.73
49393;BME280;35268;42.642;23.308;2023-04-25T02:10:56;93113.03;;;10.54;88.69
49393;BME280;35268;42.642;23.308;2023-04-25T02:13:22;93104.06;;;10.58;88.61
49393;BME280;35268;42.642;23.308;2023-04-25T02:15:47;93112.63;;;10.64;88.00
49393;BME280;35268;42.642;23.308;2023-04-25T02:18:13;93094.06;;;10.68;87.36
49393;BME280;35268;42.642;23.308;2023-04-25T02:20:41;93082.19;;;10.65;87.07
49393;BME280;35268;42.642;23.308;2023-04-25T02:23:07;93081.97;;;10.70;86.41
49393;BME280;35268;42.642;23.308;2023-04-25T02:25:32;93095.19;;;10.67;86.25
49393;BME280;35268;42.642;23.308;2023-04-25T02:27:58;93087.53;;;10.65;86.37
49393;BME280;35268;42.642;23.308;2023-04-25T02:30:23;93076.09;;;10.64;86.09
49393;BME280;35268;42.642;23.308;2023-04-25T02:32:48;93076.44;;;10.63;86.28
49393;BME280;35268;42.642;23.308;2023-04-25T02:35:14;93076.19;;;10.56;85.33
49393;BME280;35268;42.642;23.308;2023-04-25T02:37:40;93080.16;;;10.50;85.17
49393;BME280;35268;42.642;23.308;2023-04-25T02:40:06;93075.41;;;10.43;84.19
49393;BME280;35268;42.642;23.308;2023-04-25T02:42:32;93066.25;;;10.32;84.28
49393;BME280;35268;42.642;23.308;2023-04-25T02:44:58;93072.56;;;10.27;84.23
49393;BME280;35268;42.642;23.308;2023-04-25T02:47:23;93070.75;;;10.19;84.31
49393;BME280;35268;42.642;23.308;2023-04-25T02:49:49;93072.06;;;10.13;83.84
49393;BME280;35268;42.642;23.308;2023-04-25T02:52:14;93055.06;;;10.05;83.61
49393;BME280;35268;42.642;23.308;2023-04-25T02:54:40;93059.06;;;9.99;83.65
49393;BME280;35268;42.642;23.308;2023-04-25T02:57:06;93046.41;;;9.96;83.98
49393;BME280;35268;42.642;23.308;2023-04-25T02:59:31;93054.41;;;9.96;84.08
49393;BME280;35268;42.642;23.308;2023-04-25T03:01:57;93043.31;;;9.94;84.12
49393;BME280;35268;42.642;23.308;2023-04-25T03:04:23;93052.38;;;9.93;83.97
49393;BME280;35268;42.642;23.308;2023-04-25T03:06:52;93044.63;;;9.88;84.26
49393;BME280;35268;42.642;23.308;2023-04-25T03:09:18;93050.84;;;9.92;84.23
49393;BME280;35268;42.642;23.308;2023-04-25T03:11:45;93049.41;;;9.94;84.37
49393;BME280;35268;42.642;23.308;2023-04-25T03:14:11;93044.84;;;9.95;84.23
49393;BME280;35268;42.642;23.308;2023-04-25T03:16:36;93043.03;;;9.87;84.23
49393;BME280;35268;42.642;23.308;2023-04-25T03:19:02;93032.75;;;9.85;84.49
49393;BME280;35268;42.642;23.308;2023-04-25T03:21:28;93044.47;;;9.84;84.79
49393;BME280;35268;42.642;23.308;2023-04-25T03:23:54;93038.13;;;9.76;85.01
49393;BME280;35268;42.642;23.308;2023-04-25T03:26:19;93048.13;;;9.79;85.30
49393;BME280;35268;42.642;23.308;2023-04-25T03:28:45;93051.44;;;9.76;85.32
49393;BME280;35268;42.642;23.308;2023-04-25T03:31:11;93053.78;;;9.78;85.34
49393;BME280;35268;42.642;23.308;2023-04-25T03:33:36;93046.69;;;9.82;85.60
49393;BME280;35268;42.642;23.308;2023-04-25T03:36:02;93060.13;;;9.86;85.73
49393;BME280;35268;42.642;23.308;2023-04-25T03:38:27;93048.38;;;9.87;85.97
49393;BME280;35268;42.642;23.308;2023-04-25T03:40:53;93047.59;;;9.86;86.22
49393;BME280;35268;42.642;23.308;2023-04-25T03:43:19;93044.75;;;9.91;86.34
49393;BME280;35268;42.642;23.308;2023-04-25T03:45:44;93037.66;;;9.95;86.39
49393;BME280;35268;42.642;23.308;2023-04-25T03:48:11;93043.97;;;10.03;86.63
49393;BME280;35268;42.642;23.308;2023-04-25T03:50:36;93029.91;;;10.02;87.20
49393;BME280;35268;42.642;23.308;2023-04-25T03:53:02;93048.34;;;10.08;87.05
49393;BME280;35268;42.642;23.308;2023-04-25T03:55:27;93025.16;;;10.08;86.92
49393;BME280;35268;42.642;23.308;2023-04-25T03:57:53;93028.25;;;10.10;87.74
49393;BME280;35268;42.642;23.308;2023-04-25T04:00:18;93025.50;;;10.19;87.82
49393;BME280;35268;42.642;23.308;2023-04-25T04:02:44;93026.97;;;10.29;87.46
49393;BME280;35268;42.642;23.308;2023-04-25T04:05:09;93043.19;;;10.36;86.60
49393;BME280;35268;42.642;23.308;2023-04-25T04:07:35;93044.75;;;10.37;86.68
49393;BME280;35268;42.642;23.308;2023-04-25T04:10:06;93060.94;;;10.44;86.47
49393;BME280;35268;42.642;23.308;2023-04-25T04:12:32;93049.19;;;10.45;85.90
49393;BME280;35268;42.642;23.308;2023-04-25T04:14:57;93053.97;;;10.52;86.48
49393;BME280;35268;42.642;23.308;2023-04-25T04:17:22;93052.88;;;10.53;85.92
49393;BME280;35268;42.642;23.308;2023-04-25T04:19:48;93038.09;;;10.55;86.62
49393;BME280;35268;42.642;23.308;2023-04-25T04:22:13;93053.22;;;10.63;86.43
49393;BME280;35268;42.642;23.308;2023-04-25T04:24:39;93037.91;;;10.60;85.64
49393;BME280;35268;42.642;23.308;2023-04-25T04:27:04;93048.66;;;10.64;86.39
49393;BME280;35268;42.642;23.308;2023-04-25T04:29:31;93064.13;;;10.71;86.40
49393;BME280;35268;42.642;23.308;2023-04-25T04:31:56;93049.53;;;10.68;85.46
49393;BME280;35268;42.642;23.308;2023-04-25T04:34:21;93060.13;;;10.64;85.62
49393;BME280;35268;42.642;23.308;2023-04-25T04:36:47;93060.75;;;10.61;85.41
49393;BME280;35268;42.642;23.308;2023-04-25T04:39:13;93056.88;;;10.59;85.61
49393;BME280;35268;42.642;23.308;2023-04-25T04:41:39;93047.00;;;10.59;85.42
49393;BME280;35268;42.642;23.308;2023-04-25T04:44:05;93058.53;;;10.63;85.88
49393;BME280;35268;42.642;23.308;2023-04-25T04:46:32;93036.78;;;10.74;86.26
49393;BME280;35268;42.642;23.308;2023-04-25T04:49:04;93033.56;;;10.80;86.47
49393;BME280;35268;42.642;23.308;2023-04-25T04:51:30;93039.31;;;10.82;86.47
49393;BME280;35268;42.642;23.308;2023-04-25T04:53:56;93049.09;;;10.91;86.32
49393;BME280;35268;42.642;23.308;2023-04-25T04:56:23;93045.44;;;10.95;86.42
49393;BME280;35268;42.642;23.308;2023-04-25T04:58:50;93051.56;;;10.96;86.10
49393;BME280;35268;42.642;23.308;2023-04-25T05:01:16;93059.53;;;10.96;85.59
49393;BME280;35268;42.642;23.308;2023-04-25T05:03:41;93081.22;;;10.94;85.32
49393;BME280;35268;42.642;23.308;2023-04-25T05:06:07;93068.31;;;10.96;85.51
49393;BME280;35268;42.642;23.308;2023-04-25T05:08:34;93078.78;;;11.01;85.13
49393;BME280;35268;42.642;23.308;2023-04-25T05:10:59;93083.75;;;11.03;84.54
49393;BME280;35268;42.642;23.308;2023-04-25T05:13:25;93072.53;;;11.10;84.57
49393;BME280;35268;42.642;23.308;2023-04-25T05:15:50;93084.53;;;11.16;84.32
49393;BME280;35268;42.642;23.308;2023-04-25T05:18:15;93074.44;;;11.21;83.82
49393;BME280;35268;42.642;23.308;2023-04-25T05:20:41;93084.97;;;11.30;83.57
49393;BME280;35268;42.642;23.308;2023-04-25T05:23:06;93078.63;;;11.35;83.38
49393;BME280;35268;42.642;23.308;2023-04-25T05:25:32;93083.63;;;11.36;83.66
49393;BME280;35268;42.642;23.308;2023-04-25T05:27:57;93073.50;;;11.42;83.27
49393;BME280;35268;42.642;23.308;2023-04-25T05:30:23;93067.25;;;11.50;83.22
49393;BME280;35268;42.642;23.308;2023-04-25T05:32:48;93085.34;;;11.57;82.88
49393;BME280;35268;42.642;23.308;2023-04-25T05:35:14;93086.22;;;11.61;82.38
49393;BME280;35268;42.642;23.308;2023-04-25T05:37:40;93093.56;;;11.64;81.46
49393;BME280;35268;42.642;23.308;2023-04-25T05:40:06;93085.34;;;11.57;81.10
49393;BME280;35268;42.642;23.308;2023-04-25T05:42:32;93079.88;;;11.65;81.12
49393;BME280;35268;42.642;23.308;2023-04-25T05:44:57;93077.66;;;11.68;81.34
49393;BME280;35268;42.642;23.308;2023-04-25T05:47:23;93078.63;;;11.75;81.40
49393;BME280;35268;42.642;23.308;2023-04-25T05:49:48;93083.50;;;11.85;80.68
49393;BME280;35268;42.642;23.308;2023-04-25T05:52:14;93086.84;;;11.95;80.58
49393;BME280;35268;42.642;23.308;2023-04-25T05:54:40;93083.91;;;12.00;79.59
49393;BME280;35268;42.642;23.308;2023-04-25T05:57:06;93086.34;;;12.05;79.36
49393;BME280;35268;42.642;23.308;2023-04-25T05:59:31;93089.88;;;12.09;79.45
49393;BME280;35268;42.642;23.308;2023-04-25T06:01:57;93090.41;;;12.15;79.92
49393;BME280;35268;42.642;23.308;2023-04-25T06:04:22;93091.28;;;12.19;79.82
49393;BME280;35268;42.642;23.308;2023-04-25T06:06:48;93087.59;;;12.23;79.76
49393;BME280;35268;42.642;23.308;2023-04-25T06:09:13;93085.44;;;12.29;79.71
49393;BME280;35268;42.642;23.308;2023-04-25T06:11:38;93077.06;;;12.31;79.43
49393;BME280;35268;42.642;23.308;2023-04-25T06:14:05;93081.50;;;12.39;79.08
49393;BME280;35268;42.642;23.308;2023-04-25T06:16:31;93085.78;;;12.43;78.73
49393;BME280;35268;42.642;23.308;2023-04-25T06:18:56;93082.44;;;12.47;78.31
49393;BME280;35268;42.642;23.308;2023-04-25T06:21:22;93062.09;;;12.42;77.35
49393;BME280;35268;42.642;23.308;2023-04-25T06:23:47;93076.78;;;12.48;77.26
49393;BME280;35268;42.642;23.308;2023-04-25T06:26:12;93082.22;;;12.52;76.96
49393;BME280;35268;42.642;23.308;2023-04-25T06:28:38;93085.22;;;12.50;77.01
49393;BME280;35268;42.642;23.308;2023-04-25T06:31:03;93089.19;;;12.56;76.30
49393;BME280;35268;42.642;23.308;2023-04-25T06:33:29;93090.41;;;12.59;76.45
49393;BME280;35268;42.642;23.308;2023-04-25T06:35:54;93099.47;;;12.70;76.40
49393;BME280;35268;42.642;23.308;2023-04-25T06:38:20;93101.78;;;12.72;76.33
49393;BME280;35268;42.642;23.308;2023-04-25T06:40:45;93100.75;;;12.76;76.22
49393;BME280;35268;42.642;23.308;2023-04-25T06:43:11;93106.69;;;12.85;75.92
49393;BME280;35268;42.642;23.308;2023-04-25T06:45:36;93103.34;;;12.89;74.69
49393;BME280;35268;42.642;23.308;2023-04-25T06:48:13;93104.56;;;12.91;74.11
49393;BME280;35268;42.642;23.308;2023-04-25T06:50:39;93104.28;;;12.96;74.43
49393;BME280;35268;42.642;23.308;2023-04-25T06:53:05;93101.34;;;13.01;73.35
49393;BME280;35268;42.642;23.308;2023-04-25T06:55:30;93094.38;;;13.13;72.93
49393;BME280;35268;42.642;23.308;2023-04-25T06:57:56;93090.78;;;13.24;72.94
49393;BME280;35268;42.642;23.308;2023-04-25T07:00:21;93103.31;;;13.36;73.25
49393;BME280;35268;42.642;23.308;2023-04-25T07:02:47;93095.91;;;13.46;71.45
49393;BME280;35268;42.642;23.308;2023-04-25T07:05:30;93100.28;;;13.54;71.45
49393;BME280;35268;42.642;23.308;2023-04-25T07:07:56;93100.84;;;13.63;71.59
49393;BME280;35268;42.642;23.308;2023-04-25T07:10:21;93104.09;;;13.72;71.15
49393;BME280;35268;42.642;23.308;2023-04-25T07:12:47;93092.00;;;13.78;70.81
49393;BME280;35268;42.642;23.308;2023-04-25T07:15:12;93099.03;;;13.87;71.02
49393;BME280;35268;42.642;23.308;2023-04-25T07:17:38;93093.38;;;13.92;70.52
49393;BME280;35268;42.642;23.308;2023-04-25T07:20:04;93085.84;;;13.97;69.90
49393;BME280;35268;42.642;23.308;2023-04-25T07:22:31;93083.31;;;14.04;69.73
49393;BME280;35268;42.642;23.308;2023-04-25T07:24:57;93084.88;;;14.05;69.10
49393;BME280;35268;42.642;23.308;2023-04-25T07:27:22;93082.25;;;14.09;69.83
49393;BME280;35268;42.642;23.308;2023-04-25T07:29:48;93083.09;;;14.13;69.38
49393;BME280;35268;42.642;23.308;2023-04-25T07:32:13;93082.25;;;14.09;68.05
49393;BME280;35268;42.642;23.308;2023-04-25T07:34:39;93087.41;;;14.18;69.01
49393;BME280;35268;42.642;23.308;2023-04-25T07:37:05;93088.44;;;14.33;69.02
49393;BME280;35268;42.642;23.308;2023-04-25T07:39:31;93092.16;;;14.48;68.71
49393;BME280;35268;42.642;23.308;2023-04-25T07:41:56;93085.81;;;14.56;68.90
49393;BME280;35268;42.642;23.308;2023-04-25T07:44:24;93083.31;;;14.67;67.73
49393;BME280;35268;42.642;23.308;2023-04-25T07:46:49;93066.56;;;14.73;67.20
49393;BME280;35268;42.642;23.308;2023-04-25T07:49:15;93080.94;;;14.84;66.58
49393;BME280;35268;42.642;23.308;2023-04-25T07:51:40;93081.78;;;14.89;65.74
49393;BME280;35268;42.642;23.308;2023-04-25T07:54:09;93074.91;;;14.91;65.03
49393;BME280;35268;42.642;23.308;2023-04-25T07:56:34;93073.78;;;14.92;65.57
49393;BME280;35268;42.642;23.308;2023-04-25T07:59:00;93081.16;;;14.99;65.00
49393;BME280;35268;42.642;23.308;2023-04-25T08:01:25;93074.72;;;15.03;64.58
49393;BME280;35268;42.642;23.308;2023-04-25T08:03:52;93069.47;;;15.11;64.35
49393;BME280;35268;42.642;23.308;2023-04-25T08:06:17;93060.75;;;15.17;65.69
49393;BME280;35268;42.642;23.308;2023-04-25T08:08:43;93074.03;;;15.33;65.05
49393;BME280;35268;42.642;23.308;2023-04-25T08:11:09;93059.63;;;15.45;65.06
49393;BME280;35268;42.642;23.308;2023-04-25T08:13:34;93061.00;;;15.62;64.43
49393;BME280;35268;42.642;23.308;2023-04-25T08:16:00;93065.22;;;15.63;63.52
49393;BME280;35268;42.642;23.308;2023-04-25T08:18:25;93060.44;;;15.76;63.27
49393;BME280;35268;42.642;23.308;2023-04-25T08:20:51;93053.66;;;15.86;62.41
49393;BME280;35268;42.642;23.308;2023-04-25T08:23:16;93055.00;;;16.02;61.27
49393;BME280;35268;42.642;23.308;2023-04-25T08:25:42;93042.06;;;16.15;60.54
49393;BME280;35268;42.642;23.308;2023-04-25T08:28:07;93048.34;;;16.27;59.99
49393;BME280;35268;42.642;23.308;2023-04-25T08:30:32;93054.19;;;16.36;58.35
49393;BME280;35268;42.642;23.308;2023-04-25T08:32:58;93052.50;;;16.20;56.37
49393;BME280;35268;42.642;23.308;2023-04-25T08:35:23;93052.75;;;16.08;56.18
49393;BME280;35268;42.642;23.308;2023-04-25T08:37:49;93051.56;;;16.05;56.44
49393;BME280;35268;42.642;23.308;2023-04-25T08:40:15;93065.22;;;15.90;57.34
49393;BME280;35268;42.642;23.308;2023-04-25T08:42:44;93065.06;;;15.52;56.62
49393;BME280;35268;42.642;23.308;2023-04-25T08:45:10;93031.44;;;15.05;61.58
49393;BME280;35268;42.642;23.308;2023-04-25T08:47:38;93060.47;;;14.99;57.46
49393;BME280;35268;42.642;23.308;2023-04-25T08:50:04;93050.09;;;14.98;60.77
49393;BME280;35268;42.642;23.308;2023-04-25T08:52:36;93042.00;;;14.94;63.32
49393;BME280;35268;42.642;23.308;2023-04-25T08:55:02;93042.03;;;14.98;60.11
49393;BME280;35268;42.642;23.308;2023-04-25T08:57:31;93047.88;;;15.03;59.31
49393;BME280;35268;42.642;23.308;2023-04-25T08:59:57;93037.41;;;15.21;61.35
49393;BME280;35268;42.642;23.308;2023-04-25T09:02:24;93035.28;;;15.34;62.38
49393;BME280;35268;42.642;23.308;2023-04-25T09:04:50;93052.00;;;15.51;64.28
49393;BME280;35268;42.642;23.308;2023-04-25T09:07:15;93046.47;;;15.67;64.92
49393;BME280;35268;42.642;23.308;2023-04-25T09:09:46;93048.59;;;15.80;61.32
49393;BME280;35268;42.642;23.308;2023-04-25T09:12:11;93039.56;;;15.96;64.22
49393;BME280;35268;42.642;23.308;2023-04-25T09:14:37;93038.28;;;16.20;61.71
49393;BME280;35268;42.642;23.308;2023-04-25T09:17:04;93038.75;;;16.29;60.62
49393;BME280;35268;42.642;23.308;2023-04-25T09:19:36;93040.03;;;16.39;59.57
49393;BME280;35268;42.642;23.308;2023-04-25T09:22:05;93034.78;;;16.53;60.05
49393;BME280;35268;42.642;23.308;2023-04-25T09:24:40;93029.53;;;16.68;59.90
49393;BME280;35268;42.642;23.308;2023-04-25T09:27:09;93045.31;;;16.73;58.36
49393;BME280;35268;42.642;23.308;2023-04-25T09:29:37;93036.91;;;16.78;58.99
49393;BME280;35268;42.642;23.308;2023-04-25T09:34:41;93025.13;;;16.93;58.55
49393;BME280;35268;42.642;23.308;2023-04-25T09:37:09;93031.31;;;16.97;58.58
49393;BME280;35268;42.642;23.308;2023-04-25T09:39:34;93035.97;;;17.00;57.91
49393;BME280;35268;42.642;23.308;2023-04-25T09:42:00;93053.66;;;17.01;57.15
49393;BME280;35268;42.642;23.308;2023-04-25T09:44:25;93042.69;;;16.80;56.72
49393;BME280;35268;42.642;23.308;2023-04-25T09:46:52;93028.75;;;16.71;58.77
49393;BME280;35268;42.642;23.308;2023-04-25T09:49:20;93035.72;;;16.72;59.47
49393;BME280;35268;42.642;23.308;2023-04-25T09:51:58;93032.63;;;16.70;57.73
49393;BME280;35268;42.642;23.308;2023-04-25T09:54:25;93030.47;;;16.45;54.09
49393;BME280;35268;42.642;23.308;2023-04-25T09:56:52;93026.09;;;16.30;51.50
49393;BME280;35268;42.642;23.308;2023-04-25T09:59:22;93019.84;;;16.22;52.10
49393;BME280;35268;42.642;23.308;2023-04-25T10:01:50;93009.09;;;16.18;52.40
49393;BME280;35268;42.642;23.308;2023-04-25T10:04:20;93019.28;;;15.72;44.35
49393;BME280;35268;42.642;23.308;2023-04-25T10:06:49;93016.19;;;15.39;45.28
49393;BME280;35268;42.642;23.308;2023-04-25T10:09:16;93030.09;;;15.18;48.32
49393;BME280;35268;42.642;23.308;2023-04-25T10:11:44;93037.78;;;15.20;53.00
49393;BME280;35268;42.642;23.308;2023-04-25T10:14:11;93039.56;;;14.85;46.41
49393;BME280;35268;42.642;23.308;2023-04-25T10:16:38;93065.13;;;14.79;49.67
49393;BME280;35268;42.642;23.308;2023-04-25T10:19:04;93052.28;;;14.46;48.48
49393;BME280;35268;42.642;23.308;2023-04-25T10:21:31;93033.34;;;14.35;50.55
49393;BME280;35268;42.642;23.308;2023-04-25T10:23:59;93022.09;;;14.49;51.25
49393;BME280;35268;42.642;23.308;2023-04-25T10:26:25;93017.63;;;14.57;52.19
49393;BME280;35268;42.642;23.308;2023-04-25T10:29:00;93020.13;;;14.69;56.34
49393;BME280;35268;42.642;23.308;2023-04-25T10:31:26;93007.75;;;14.84;54.12
49393;BME280;35268;42.642;23.308;2023-04-25T10:33:53;92992.22;;;14.97;45.29
49393;BME280;35268;42.642;23.308;2023-04-25T10:36:21;92991.91;;;15.32;48.69
49393;BME280;35268;42.642;23.308;2023-04-25T10:38:48;92991.06;;;15.55;44.23
49393;BME280;35268;42.642;23.308;2023-04-25T10:41:17;92994.50;;;15.82;46.55
49393;BME280;35268;42.642;23.308;2023-04-25T10:43:45;92995.81;;;15.99;46.72
49393;BME280;35268;42.642;23.308;2023-04-25T10:46:29;93008.22;;;16.11;43.71
49393;BME280;35268;42.642;23.308;2023-04-25T10:49:04;93010.47;;;16.05;45.30
49393;BME280;35268;42.642;23.308;2023-04-25T10:51:34;93011.63;;;16.04;43.78
49393;BME280;35268;42.642;23.308;2023-04-25T10:54:07;93020.34;;;15.94;43.56
49393;BME280;35268;42.642;23.308;2023-04-25T11:01:40;93017.59;;;15.60;44.29
49393;BME280;35268;42.642;23.308;2023-04-25T11:07:10;93005.03;;;15.98;44.52
49393;BME280;35268;42.642;23.308;2023-04-25T11:09:39;93006.00;;;16.16;42.83
49393;BME280;35268;42.642;23.308;2023-04-25T11:12:07;92996.59;;;16.37;42.67
49393;BME280;35268;42.642;23.308;2023-04-25T11:14:33;92995.00;;;16.77;43.15
49393;BME280;35268;42.642;23.308;2023-04-25T11:16:59;92983.91;;;16.82;40.73
49393;BME280;35268;42.642;23.308;2023-04-25T11:19:26;92979.78;;;16.95;41.87
49393;BME280;35268;42.642;23.308;2023-04-25T11:21:59;92985.19;;;16.99;40.46
49393;BME280;35268;42.642;23.308;2023-04-25T11:24:43;92988.25;;;16.97;41.72
49393;BME280;35268;42.642;23.308;2023-04-25T11:27:10;92999.63;;;16.80;43.30
49393;BME280;35268;42.642;23.308;2023-04-25T11:29:36;93001.78;;;16.60;45.02
49393;BME280;35268;42.642;23.308;2023-04-25T11:32:02;92994.63;;;16.34;45.35
49393;BME280;35268;42.642;23.308;2023-04-25T11:34:28;93007.22;;;16.22;47.01
49393;BME280;35268;42.642;23.308;2023-04-25T11:36:56;93008.94;;;16.04;46.20
49393;BME280;35268;42.642;23.308;2023-04-25T11:39:21;93010.56;;;15.78;47.01
49393;BME280;35268;42.642;23.308;2023-04-25T11:41:48;93014.31;;;15.43;48.93
49393;BME280;35268;42.642;23.308;2023-04-25T11:44:17;93027.44;;;15.22;52.39
49393;BME280;35268;42.642;23.308;2023-04-25T11:46:43;93056.31;;;14.79;53.16
49393;BME280;35268;42.642;23.308;2023-04-25T11:49:09;93048.94;;;14.30;56.22
49393;BME280;35268;42.642;23.308;2023-04-25T11:51:41;93061.28;;;13.37;58.91
49393;BME280;35268;42.642;23.308;2023-04-25T11:54:08;93065.56;;;12.74;64.82
49393;BME280;35268;42.642;23.308;2023-04-25T11:56:33;93042.25;;;12.43;67.27
49393;BME280;35268;42.642;23.308;2023-04-25T11:59:03;93019.94;;;12.35;66.74
49393;BME280;35268;42.642;23.308;2023-04-25T12:01:31;93015.03;;;12.53;69.11
49393;BME280;35268;42.642;23.308;2023-04-25T12:03:57;93003.13;;;12.82;70.36
49393;BME280;35268;42.642;23.308;2023-04-25T12:06:27;92989.91;;;13.25;72.78
49393;BME280;35268;42.642;23.308;2023-04-25T12:09:03;92988.81;;;13.84;75.33
49393;BME280;35268;42.642;23.308;2023-04-25T12:11:32;92973.78;;;14.45;78.75
49393;BME280;35268;42.642;23.308;2023-04-25T12:14:05;92976.25;;;15.08;73.91
49393;BME280;35268;42.642;23.308;2023-04-25T12:16:44;92984.72;;;15.70;71.64
49393;BME280;35268;42.642;23.308;2023-04-25T12:19:09;92977.59;;;16.19;66.55
49393;BME280;35268;42.642;23.308;2023-04-25T12:21:35;92972.03;;;16.42;57.73
49393;BME280;35268;42.642;23.308;2023-04-25T12:24:17;92968.34;;;16.16;57.26
49393;BME280;35268;42.642;23.308;2023-04-25T12:29:19;92983.56;;;16.01;55.84
49393;BME280;35268;42.642;23.308;2023-04-25T12:31:45;92967.53;;;15.75;56.78
49393;BME280;35268;42.642;23.308;2023-04-25T12:34:10;92990.53;;;16.06;55.17
49393;BME280;35268;42.642;23.308;2023-04-25T12:36:36;93010.66;;;16.23;58.47
49393;BME280;35268;42.642;23.308;2023-04-25T12:39:02;93026.06;;;15.62;56.29
49393;BME280;35268;42.642;23.308;2023-04-25T12:41:29;93040.34;;;14.86;56.30
49393;BME280;35268;42.642;23.308;2023-04-25T12:43:55;93047.28;;;14.44;61.06
49393;BME280;35268;42.642;23.308;2023-04-25T12:46:20;93054.41;;;14.14;62.47
49393;BME280;35268;42.642;23.308;2023-04-25T12:48:46;93055.94;;;13.76;60.93
49393;BME280;35268;42.642;23.308;2023-04-25T12:51:12;93050.44;;;13.49;61.39
49393;BME280;35268;42.642;23.308;2023-04-25T12:53:37;93061.78;;;13.27;62.99
49393;BME280;35268;42.642;23.308;2023-04-25T12:56:04;93065.38;;;13.15;62.67
49393;BME280;35268;42.642;23.308;2023-04-25T12:58:30;93072.59;;;12.98;63.68
49393;BME280;35268;42.642;23.308;2023-04-25T13:00:55;93062.81;;;12.71;63.12